createdAt,value
2023-12-09T00:02:51.564Z,17.77
2023-12-09T00:07:54.847Z,17.70
2023-12-09T00:12:57.904Z,17.60
2023-12-09T00:18:02.506Z,16.37
2023-12-09T00:23:05.743Z,18.63
2023-12-09T00:28:08.854Z,18.47
2023-12-09T00:33:13.432Z,15.97
2023-12-09T00:38:16.641Z,15.60
2023-12-09T00:43:19.779Z,16.13
2023-12-09T00:48:24.721Z,16.57
2023-12-09T00:53:27.863Z,18.10
2023-12-09T00:58:30.985Z,18.60
2023-12-09T01:03:35.661Z,18.53
2023-12-09T01:08:38.870Z,19.13
2023-12-09T01:13:41.971Z,18.13
2023-12-09T01:18:46.426Z,20.30
2023-12-09T01:23:49.681Z,17.97
2023-12-09T01:28:52.812Z,17.53
2023-12-09T01:33:57.367Z,16.70
2023-12-09T01:39:00.520Z,18.00
2023-12-09T01:44:04.000Z,16.70
2023-12-09T01:49:08.634Z,17.27
2023-12-09T01:54:12.982Z,16.80
2023-12-09T01:59:16.690Z,16.73
2023-12-09T02:04:21.479Z,16.70
2023-12-09T02:09:25.982Z,15.60
2023-12-09T02:14:35.384Z,15.93
2023-12-09T02:19:40.672Z,15.43
2023-12-09T02:24:45.138Z,16.13
2023-12-09T02:29:53.172Z,13.80
2023-12-09T02:34:57.242Z,10.57
2023-12-09T02:40:03.837Z,9.67
2023-12-09T02:45:09.155Z,12.77
2023-12-09T02:50:12.456Z,12.80
2023-12-09T02:55:18.057Z,12.40
2023-12-09T03:00:21.209Z,12.17
2023-12-09T03:05:24.375Z,13.87
2023-12-09T03:10:28.859Z,13.43
2023-12-09T03:15:32.024Z,13.40
2023-12-09T03:20:35.115Z,15.40
2023-12-09T03:25:39.584Z,12.73
2023-12-09T03:30:42.766Z,14.10
2023-12-09T03:35:45.886Z,14.70
2023-12-09T03:40:50.320Z,15.30
2023-12-09T03:45:53.388Z,16.23
2023-12-09T03:50:56.565Z,15.87
2023-12-09T03:56:01.024Z,13.90
2023-12-09T04:01:04.716Z,13.70
2023-12-09T04:06:08.174Z,14.20
2023-12-09T04:11:12.728Z,15.77
2023-12-09T04:16:15.909Z,15.43
2023-12-09T04:21:19.705Z,14.97
2023-12-09T04:26:25.870Z,15.13
2023-12-09T04:31:28.975Z,13.80
2023-12-09T04:36:32.116Z,15.97
2023-12-09T04:41:36.690Z,17.63
2023-12-09T04:46:39.785Z,16.57
2023-12-09T04:51:42.816Z,17.43
2023-12-09T04:56:47.364Z,17.30
2023-12-09T05:01:50.831Z,16.93
2023-12-09T05:06:54.092Z,16.80
2023-12-09T05:11:58.866Z,16.30
2023-12-09T05:17:02.097Z,15.83
2023-12-09T05:22:05.615Z,16.10
2023-12-09T05:27:10.110Z,15.97
2023-12-09T05:32:13.309Z,15.47
2023-12-09T05:37:16.392Z,16.00
2023-12-09T05:42:20.863Z,14.63
2023-12-09T05:47:24.143Z,15.57
2023-12-09T05:52:27.538Z,16.50
2023-12-09T05:57:32.200Z,16.37
2023-12-09T06:02:35.295Z,15.50
2023-12-09T06:07:38.488Z,16.30
2023-12-09T06:12:43.070Z,17.70
2023-12-09T06:17:46.233Z,18.60
2023-12-09T06:22:49.287Z,19.17
2023-12-09T06:27:54.207Z,18.53
2023-12-09T06:32:57.519Z,18.70
2023-12-09T06:38:00.672Z,18.00
2023-12-09T06:43:05.136Z,20.40
2023-12-09T06:48:08.427Z,16.83
2023-12-09T06:53:14.519Z,14.60
2023-12-09T06:58:19.044Z,10.53
2023-12-09T07:03:22.685Z,7.57
2023-12-09T07:08:27.849Z,4.33
2023-12-09T07:13:33.639Z,18.60
2023-12-09T07:18:37.300Z,17.33
2023-12-09T07:23:40.560Z,17.20
2023-12-09T07:28:46.083Z,18.50
2023-12-09T07:33:49.422Z,15.97
2023-12-09T07:38:52.869Z,17.87
2023-12-09T07:43:57.336Z,16.90
2023-12-09T07:49:00.933Z,17.13
2023-12-09T07:54:04.138Z,17.93
2023-12-09T07:59:08.833Z,14.50
2023-12-09T08:04:12.939Z,18.57
2023-12-09T08:09:16.920Z,16.27
2023-12-09T08:14:21.436Z,15.73
2023-12-09T08:19:24.657Z,13.30
2023-12-09T08:24:29.132Z,17.90
2023-12-09T08:29:33.713Z,21.57
2023-12-09T08:34:36.920Z,22.00
2023-12-09T08:39:41.882Z,19.03
2023-12-09T08:44:46.404Z,19.60
2023-12-09T08:49:49.592Z,24.03
2023-12-09T08:54:53.850Z,20.70
2023-12-09T08:59:59.272Z,20.73
2023-12-09T09:05:02.453Z,19.90
2023-12-09T09:10:06.300Z,17.60
2023-12-09T09:15:11.428Z,18.80
2023-12-09T09:20:14.680Z,20.10
2023-12-09T09:25:17.922Z,21.30
2023-12-09T09:30:23.547Z,19.97
2023-12-09T09:35:26.733Z,20.60
2023-12-09T09:40:29.857Z,20.20
2023-12-09T09:45:35.048Z,22.30
2023-12-09T09:50:43.203Z,19.20
2023-12-09T09:55:48.387Z,16.90
2023-12-09T10:00:57.239Z,17.27
2023-12-09T10:06:01.521Z,15.90
2023-12-09T10:11:05.212Z,19.33
2023-12-09T10:16:10.161Z,19.13
2023-12-09T10:21:13.575Z,21.93
2023-12-09T10:26:17.024Z,20.73
2023-12-09T10:31:21.668Z,17.73
2023-12-09T10:36:25.164Z,18.10
2023-12-09T10:41:29.312Z,20.20
2023-12-09T10:46:36.188Z,18.50
2023-12-09T10:51:40.413Z,20.37
2023-12-09T10:56:45.169Z,19.60
2023-12-09T11:01:50.172Z,20.70
2023-12-09T11:06:54.061Z,20.27
2023-12-09T11:11:57.175Z,23.33
2023-12-09T11:17:03.095Z,24.13
2023-12-09T11:22:06.174Z,21.63
2023-12-09T11:27:09.570Z,19.93
2023-12-09T11:32:15.370Z,21.13
2023-12-09T11:37:20.077Z,21.47
2023-12-09T11:42:23.910Z,19.10
2023-12-09T11:47:28.978Z,21.97
2023-12-09T11:52:32.064Z,22.90
2023-12-09T11:57:35.237Z,23.17
2023-12-09T12:02:40.622Z,23.93
2023-12-09T12:07:43.726Z,22.40
2023-12-09T12:12:46.972Z,23.07
2023-12-09T12:17:51.596Z,21.23
2023-12-09T12:22:54.890Z,20.50
2023-12-09T12:27:58.847Z,21.07
2023-12-09T12:33:04.784Z,20.60
2023-12-09T12:38:08.779Z,18.17
2023-12-09T12:43:12.037Z,19.30
2023-12-09T12:48:16.781Z,17.10
2023-12-09T12:53:20.632Z,15.53
2023-12-09T12:58:24.424Z,13.10
2023-12-09T13:03:30.096Z,12.73
2023-12-09T13:08:33.662Z,5.63
2023-12-09T13:13:36.918Z,5.87
2023-12-09T13:18:41.839Z,4.27
2023-12-09T13:23:45.326Z,4.10
2023-12-09T13:28:48.680Z,4.30
2023-12-09T13:33:53.327Z,4.20
2023-12-09T13:38:56.608Z,4.27
2023-12-09T13:44:02.077Z,3.77
2023-12-09T13:49:06.796Z,4.13
2023-12-09T13:54:10.379Z,4.00
2023-12-09T13:59:13.610Z,4.37
2023-12-09T14:04:18.721Z,3.30
2023-12-09T14:09:21.966Z,5.43
2023-12-09T14:14:25.193Z,7.20
2023-12-09T14:19:30.077Z,4.20
2023-12-09T14:24:33.398Z,4.60
2023-12-09T14:29:36.537Z,6.53
2023-12-09T14:34:41.214Z,7.27
2023-12-09T14:39:44.583Z,9.60
2023-12-09T14:44:47.839Z,9.60
2023-12-09T14:49:53.996Z,11.20
2023-12-09T14:54:57.868Z,12.10
2023-12-09T15:00:01.358Z,10.17
2023-12-09T15:05:07.041Z,10.40
2023-12-09T15:10:10.379Z,9.30
2023-12-09T15:15:13.572Z,8.83
2023-12-09T15:20:18.359Z,8.40
2023-12-09T15:25:21.609Z,9.73
2023-12-09T15:30:25.069Z,8.20
2023-12-09T15:35:29.662Z,8.97
2023-12-09T15:40:32.889Z,10.60
2023-12-09T15:45:36.132Z,8.07
2023-12-09T15:50:40.760Z,9.07
2023-12-09T15:55:44.920Z,10.20
2023-12-09T16:00:48.298Z,9.20
2023-12-09T16:05:54.006Z,9.90
2023-12-09T16:10:57.161Z,11.87
2023-12-09T16:16:00.306Z,11.03
2023-12-09T16:21:06.099Z,8.90
2023-12-09T16:26:12.060Z,8.30
2023-12-09T16:31:17.680Z,7.70
2023-12-09T16:36:23.153Z,14.83
2023-12-09T16:41:26.369Z,8.97
2023-12-09T16:46:30.639Z,8.00
2023-12-09T16:51:35.365Z,7.67
2023-12-09T16:56:38.856Z,7.80
2023-12-09T17:01:42.311Z,7.73
2023-12-09T17:06:47.046Z,6.37
2023-12-09T17:11:50.479Z,8.40
2023-12-09T17:16:55.001Z,10.50
2023-12-09T17:22:00.917Z,7.83
2023-12-09T17:27:04.474Z,8.33
2023-12-09T17:32:08.112Z,9.27
2023-12-09T17:37:12.762Z,15.40
2023-12-09T17:42:16.032Z,8.73
2023-12-09T17:47:19.350Z,13.30
2023-12-09T17:52:25.892Z,9.30
2023-12-09T17:57:29.401Z,10.27
2023-12-09T18:02:32.650Z,6.73
2023-12-09T18:07:37.653Z,7.63
2023-12-09T18:12:40.904Z,6.70
2023-12-09T18:17:44.465Z,6.10
2023-12-09T18:22:49.074Z,7.50
2023-12-09T18:27:52.299Z,8.30
2023-12-09T18:32:56.997Z,7.57
2023-12-09T18:38:01.806Z,7.10
2023-12-09T18:43:05.027Z,6.60
2023-12-09T18:48:08.394Z,7.20
2023-12-09T18:53:13.228Z,7.70
2023-12-09T18:58:17.147Z,7.90
2023-12-09T19:03:21.208Z,8.10
2023-12-09T19:08:26.230Z,9.03
2023-12-09T19:13:29.424Z,7.87
2023-12-09T19:18:32.778Z,8.40
2023-12-09T19:23:37.502Z,8.63
2023-12-09T19:28:40.705Z,9.80
2023-12-09T19:33:44.060Z,10.83
2023-12-09T19:38:48.745Z,11.43
2023-12-09T19:43:51.909Z,11.90
2023-12-09T19:48:55.139Z,12.23
2023-12-09T19:53:59.758Z,13.10
2023-12-09T19:59:03.131Z,13.93
2023-12-09T20:04:07.049Z,11.53
2023-12-09T20:09:11.723Z,11.73
2023-12-09T20:14:14.918Z,11.87
2023-12-09T20:19:18.262Z,10.90
2023-12-09T20:24:22.929Z,11.30
2023-12-09T20:29:26.185Z,11.90
2023-12-09T20:34:29.491Z,11.30
2023-12-09T20:39:34.493Z,11.33
2023-12-09T20:44:37.757Z,11.33
2023-12-09T20:49:41.225Z,11.50
2023-12-09T20:54:48.122Z,11.00
2023-12-09T20:59:51.442Z,11.50
2023-12-09T21:04:54.724Z,13.40
2023-12-09T21:09:59.735Z,13.30
2023-12-09T21:15:03.181Z,12.57
2023-12-09T21:20:08.931Z,12.20
2023-12-09T21:25:15.048Z,11.73
2023-12-09T21:30:19.018Z,14.37
2023-12-09T21:35:22.356Z,13.20
2023-12-09T21:40:26.985Z,12.63
2023-12-09T21:45:30.180Z,12.40
2023-12-09T21:50:33.406Z,13.63
2023-12-09T21:55:37.962Z,13.13
2023-12-09T22:00:41.251Z,12.70
2023-12-09T22:05:44.510Z,12.17
2023-12-09T22:10:49.180Z,12.33
2023-12-09T22:15:52.438Z,11.67
2023-12-09T22:20:55.583Z,12.67
2023-12-09T22:26:00.246Z,12.30
2023-12-09T22:31:04.552Z,11.07
2023-12-09T22:36:08.868Z,9.77
2023-12-09T22:41:22.237Z,10.87
2023-12-09T22:46:26.544Z,10.63
2023-12-09T22:51:29.798Z,9.90
2023-12-09T22:56:34.445Z,9.33
2023-12-09T23:01:37.646Z,8.80
2023-12-09T23:06:40.865Z,8.77
2023-12-09T23:11:50.378Z,8.50
2023-12-09T23:16:53.651Z,7.70
2023-12-09T23:21:56.831Z,7.70
2023-12-09T23:27:01.425Z,7.70
2023-12-09T23:32:05.050Z,8.20
2023-12-09T23:37:08.242Z,7.40
2023-12-09T23:42:12.845Z,7.33
2023-12-09T23:47:16.045Z,6.30
2023-12-09T23:52:19.253Z,5.40
2023-12-09T23:57:24.148Z,5.07
